sensor_id;sensor_type;location;lat;lon;timestamp;pressure;altitude;pressure_sealevel;temperature;humidity
34124;BME280;13153;52.316;21.166;2023-04-22T00:02:11;100368.94;;;14.86;45.19
34124;BME280;13153;52.316;21.166;2023-04-22T00:04:42;100363.63;;;14.85;47.58
34124;BME280;13153;52.316;21.166;2023-04-22T00:07:11;100356.59;;;14.89;49.52
34124;BME280;13153;52.316;21.166;2023-04-22T00:09:37;100358.34;;;14.88;50.12
34124;BME280;13153;52.316;21.166;2023-04-22T00:12:04;100353.03;;;14.85;49.47
34124;BME280;13153;52.316;21.166;2023-04-22T00:14:29;100343.28;;;14.81;48.79
34124;BME280;13153;52.316;21.166;2023-04-22T00:16:56;100355.63;;;14.79;49.58
34124;BME280;13153;52.316;21.166;2023-04-22T00:19:22;100351.19;;;14.75;50.48
34124;BME280;13153;52.316;21.166;2023-04-22T00:21:49;100347.63;;;14.74;50.74
34124;BME280;13153;52.316;21.166;2023-04-22T00:24:15;100344.06;;;14.69;51.19
34124;BME280;13153;52.316;21.166;2023-04-22T00:26:40;100346.66;;;14.63;50.71
34124;BME280;13153;52.316;21.166;2023-04-22T00:29:06;100341.28;;;14.56;50.42
34124;BME280;13153;52.316;21.166;2023-04-22T00:31:32;100349.19;;;14.52;50.44
34124;BME280;13153;52.316;21.166;2023-04-22T00:33:58;100346.47;;;14.45;50.56
34124;BME280;13153;52.316;21.166;2023-04-22T00:36:23;100339.34;;;14.41;50.77
34124;BME280;13153;52.316;21.166;2023-04-22T00:38:49;100343.75;;;14.39;50.58
34124;BME280;13153;52.316;21.166;2023-04-22T00:41:16;100343.72;;;14.37;50.90
34124;BME280;13153;52.316;21.166;2023-04-22T00:43:43;100353.44;;;14.37;50.82
34124;BME280;13153;52.316;21.166;2023-04-22T00:46:09;100348.06;;;14.31;50.15
34124;BME280;13153;52.316;21.166;2023-04-22T00:48:38;100342.75;;;14.28;49.25
34124;BME280;13153;52.316;21.166;2023-04-22T00:51:05;100350.66;;;14.26;49.32
34124;BME280;13153;52.316;21.166;2023-04-22T00:53:30;100345.34;;;14.23;49.43
34124;BME280;13153;52.316;21.166;2023-04-22T00:55:57;100343.59;;;14.25;49.76
34124;BME280;13153;52.316;21.166;2023-04-22T00:58:28;100350.72;;;14.29;49.39
34124;BME280;13153;52.316;21.166;2023-04-22T01:00:54;100349.78;;;14.26;49.41
34124;BME280;13153;52.316;21.166;2023-04-22T01:03:20;100350.63;;;14.23;48.52
34124;BME280;13153;52.316;21.166;2023-04-22T01:05:48;100344.41;;;14.18;49.03
34124;BME280;13153;52.316;21.166;2023-04-22T01:08:15;100343.44;;;14.11;48.89
34124;BME280;13153;52.316;21.166;2023-04-22T01:10:41;100343.38;;;14.05;48.99
34124;BME280;13153;52.316;21.166;2023-04-22T01:13:08;100339.81;;;14.03;48.83
34124;BME280;13153;52.316;21.166;2023-04-22T01:15:34;100338.91;;;14.01;48.46
34124;BME280;13153;52.316;21.166;2023-04-22T01:18:01;100337.13;;;13.99;47.98
34124;BME280;13153;52.316;21.166;2023-04-22T01:20:28;100337.03;;;13.93;48.82
34124;BME280;13153;52.316;21.166;2023-04-22T01:22:55;100337.88;;;13.85;49.49
34124;BME280;13153;52.316;21.166;2023-04-22T01:25:27;100338.69;;;13.81;48.92
34124;BME280;13153;52.316;21.166;2023-04-22T01:27:53;100331.59;;;13.77;49.10
34124;BME280;13153;52.316;21.166;2023-04-22T01:30:19;100344.78;;;13.74;49.07
34124;BME280;13153;52.316;21.166;2023-04-22T01:32:46;100338.50;;;13.68;49.57
34124;BME280;13153;52.316;21.166;2023-04-22T01:35:12;100347.28;;;13.64;49.33
34124;BME280;13153;52.316;21.166;2023-04-22T01:37:38;100341.00;;;13.57;49.42
34124;BME280;13153;52.316;21.166;2023-04-22T01:40:05;100340.97;;;13.54;49.35
34124;BME280;13153;52.316;21.166;2023-04-22T01:42:32;100344.38;;;13.47;49.52
34124;BME280;13153;52.316;21.166;2023-04-22T01:44:58;100345.22;;;13.43;49.40
34124;BME280;13153;52.316;21.166;2023-04-22T01:47:24;100347.84;;;13.41;49.67
34124;BME280;13153;52.316;21.166;2023-04-22T01:49:52;100346.03;;;13.39;49.47
34124;BME280;13153;52.316;21.166;2023-04-22T01:52:17;100340.72;;;13.37;49.44
34124;BME280;13153;52.316;21.166;2023-04-22T01:54:43;100345.03;;;13.31;49.51
34124;BME280;13153;52.316;21.166;2023-04-22T01:57:11;100348.53;;;13.30;49.52
34124;BME280;13153;52.316;21.166;2023-04-22T01:59:39;100344.16;;;13.30;49.32
34124;BME280;13153;52.316;21.166;2023-04-22T02:02:05;100337.03;;;13.23;48.97
34124;BME280;13153;52.316;21.166;2023-04-22T02:04:31;100338.72;;;13.19;49.36
34124;BME280;13153;52.316;21.166;2023-04-22T02:06:57;100340.50;;;13.20;49.30
34124;BME280;13153;52.316;21.166;2023-04-22T02:09:23;100333.41;;;13.16;49.73
34124;BME280;13153;52.316;21.166;2023-04-22T02:11:49;100337.72;;;13.14;49.69
34124;BME280;13153;52.316;21.166;2023-04-22T02:14:15;100335.03;;;13.11;50.01
34124;BME280;13153;52.316;21.166;2023-04-22T02:16:41;100331.44;;;13.06;51.21
34124;BME280;13153;52.316;21.166;2023-04-22T02:19:07;100331.41;;;13.03;51.74
34124;BME280;13153;52.316;21.166;2023-04-22T02:21:33;100326.94;;;13.01;51.42
34124;BME280;13153;52.316;21.166;2023-04-22T02:23:59;100325.19;;;13.00;51.61
34124;BME280;13153;52.316;21.166;2023-04-22T02:26:24;100324.25;;;12.96;51.38
34124;BME280;13153;52.316;21.166;2023-04-22T02:28:51;100318.03;;;12.94;51.62
34124;BME280;13153;52.316;21.166;2023-04-22T02:31:17;100317.09;;;12.90;51.45
34124;BME280;13153;52.316;21.166;2023-04-22T02:33:43;100324.03;;;12.84;51.24
34124;BME280;13153;52.316;21.166;2023-04-22T02:36:09;100322.25;;;12.83;50.95
34124;BME280;13153;52.316;21.166;2023-04-22T02:38:36;100325.72;;;12.79;51.19
34124;BME280;13153;52.316;21.166;2023-04-22T02:41:02;100319.56;;;12.80;50.62
34124;BME280;13153;52.316;21.166;2023-04-22T02:43:28;100323.03;;;12.77;50.27
34124;BME280;13153;52.316;21.166;2023-04-22T02:45:54;100322.94;;;12.71;50.48
34124;BME280;13153;52.316;21.166;2023-04-22T02:48:20;100319.41;;;12.68;50.72
34124;BME280;13153;52.316;21.166;2023-04-22T02:50:46;100325.53;;;12.67;50.92
34124;BME280;13153;52.316;21.166;2023-04-22T02:53:11;100325.47;;;12.64;51.27
34124;BME280;13153;52.316;21.166;2023-04-22T02:55:41;100317.50;;;12.61;51.07
34124;BME280;13153;52.316;21.166;2023-04-22T02:58:07;100325.41;;;12.59;51.62
34124;BME280;13153;52.316;21.166;2023-04-22T03:00:34;100333.22;;;12.53;51.86
34124;BME280;13153;52.316;21.166;2023-04-22T03:03:00;100322.66;;;12.53;51.86
34124;BME280;13153;52.316;21.166;2023-04-22T03:05:26;100330.53;;;12.51;51.98
34124;BME280;13153;52.316;21.166;2023-04-22T03:07:52;100328.88;;;12.56;51.53
34124;BME280;13153;52.316;21.166;2023-04-22T03:10:18;100327.22;;;12.62;50.81
34124;BME280;13153;52.316;21.166;2023-04-22T03:12:44;100328.03;;;12.59;50.58
34124;BME280;13153;52.316;21.166;2023-04-22T03:15:10;100330.59;;;12.54;50.60
34124;BME280;13153;52.316;21.166;2023-04-22T03:17:36;100327.00;;;12.49;50.82
34124;BME280;13153;52.316;21.166;2023-04-22T03:20:02;100329.53;;;12.45;50.67
34124;BME280;13153;52.316;21.166;2023-04-22T03:22:28;100334.78;;;12.42;50.81
34124;BME280;13153;52.316;21.166;2023-04-22T03:24:54;100325.97;;;12.41;50.91
34124;BME280;13153;52.316;21.166;2023-04-22T03:27:20;100335.53;;;12.36;51.53
34124;BME280;13153;52.316;21.166;2023-04-22T03:29:46;100341.81;;;12.43;51.35
34124;BME280;13153;52.316;21.166;2023-04-22T03:32:11;100343.72;;;12.50;51.01
34124;BME280;13153;52.316;21.166;2023-04-22T03:34:37;100342.09;;;12.58;50.66
34124;BME280;13153;52.316;21.166;2023-04-22T03:37:03;100340.50;;;12.68;50.72
34124;BME280;13153;52.316;21.166;2023-04-22T03:39:29;100334.53;;;12.81;50.09
34124;BME280;13153;52.316;21.166;2023-04-22T03:41:54;100339.16;;;12.93;49.80
34124;BME280;13153;52.316;21.166;2023-04-22T03:44:20;100334.94;;;13.05;49.52
34124;BME280;13153;52.316;21.166;2023-04-22T03:46:46;100343.19;;;13.22;49.04
34124;BME280;13153;52.316;21.166;2023-04-22T03:49:12;100349.53;;;13.38;48.46
34124;BME280;13153;52.316;21.166;2023-04-22T03:51:38;100346.25;;;13.54;48.17
34124;BME280;13153;52.316;21.166;2023-04-22T03:54:03;100345.56;;;13.67;47.89
34124;BME280;13153;52.316;21.166;2023-04-22T03:56:29;100351.03;;;13.81;47.92
34124;BME280;13153;52.316;21.166;2023-04-22T03:58:55;100345.00;;;13.94;47.25
34124;BME280;13153;52.316;21.166;2023-04-22T04:01:21;100347.88;;;14.14;47.07
34124;BME280;13153;52.316;21.166;2023-04-22T04:03:47;100349.88;;;14.35;46.50
34124;BME280;13153;52.316;21.166;2023-04-22T04:06:13;100347.50;;;14.61;46.31
34124;BME280;13153;52.316;21.166;2023-04-22T04:08:39;100355.63;;;14.77;45.70
34124;BME280;13153;52.316;21.166;2023-04-22T04:11:05;100353.97;;;14.92;45.29
34124;BME280;13153;52.316;21.166;2023-04-22T04:13:30;100359.41;;;15.10;44.70
34124;BME280;13153;52.316;21.166;2023-04-22T04:15:58;100359.59;;;15.36;44.76
34124;BME280;13153;52.316;21.166;2023-04-22T04:18:24;100363.34;;;15.68;43.71
34124;BME280;13153;52.316;21.166;2023-04-22T04:20:51;100363.47;;;15.93;43.62
34124;BME280;13153;52.316;21.166;2023-04-22T04:23:17;100360.88;;;16.20;42.86
34124;BME280;13153;52.316;21.166;2023-04-22T04:25:43;100354.75;;;16.39;42.72
34124;BME280;13153;52.316;21.166;2023-04-22T04:28:10;100364.53;;;16.59;42.44
34124;BME280;13153;52.316;21.166;2023-04-22T04:30:36;100360.13;;;16.77;42.59
34124;BME280;13153;52.316;21.166;2023-04-22T04:33:03;100367.25;;;16.98;41.91
34124;BME280;13153;52.316;21.166;2023-04-22T04:35:35;100372.56;;;17.23;41.65
34124;BME280;13153;52.316;21.166;2023-04-22T04:38:03;100376.94;;;17.54;40.63
34124;BME280;13153;52.316;21.166;2023-04-22T04:40:31;100377.78;;;17.85;40.01
34124;BME280;13153;52.316;21.166;2023-04-22T04:42:57;100374.97;;;18.14;39.36
34124;BME280;13153;52.316;21.166;2023-04-22T04:45:23;100374.75;;;18.52;38.80
34124;BME280;13153;52.316;21.166;2023-04-22T04:47:49;100375.41;;;18.92;37.52
34124;BME280;13153;52.316;21.166;2023-04-22T04:50:17;100377.66;;;19.41;35.88
34124;BME280;13153;52.316;21.166;2023-04-22T04:52:46;100379.91;;;19.82;35.26
34124;BME280;13153;52.316;21.166;2023-04-22T04:55:14;100376.81;;;20.16;34.22
34124;BME280;13153;52.316;21.166;2023-04-22T04:57:42;100377.31;;;20.47;33.51
34124;BME280;13153;52.316;21.166;2023-04-22T05:00:08;100366.28;;;20.69;32.79
34124;BME280;13153;52.316;21.166;2023-04-22T05:02:34;100373.97;;;20.91;32.72
34124;BME280;13153;52.316;21.166;2023-04-22T05:05:01;100372.56;;;21.21;32.13
34124;BME280;13153;52.316;21.166;2023-04-22T05:07:27;100376.50;;;21.52;31.84
34124;BME280;13153;52.316;21.166;2023-04-22T05:09:53;100372.16;;;21.93;30.99
34124;BME280;13153;52.316;21.166;2023-04-22T05:12:18;100374.94;;;22.30;30.36
34124;BME280;13153;52.316;21.166;2023-04-22T05:14:44;100378.16;;;22.86;29.84
34124;BME280;13153;52.316;21.166;2023-04-22T05:17:12;100386.63;;;23.40;28.92
34124;BME280;13153;52.316;21.166;2023-04-22T05:19:38;100383.34;;;23.95;28.22
34124;BME280;13153;52.316;21.166;2023-04-22T05:22:03;100385.16;;;24.55;27.66
34124;BME280;13153;52.316;21.166;2023-04-22T05:24:29;100387.59;;;25.45;27.13
34124;BME280;13153;52.316;21.166;2023-04-22T05:26:55;100389.69;;;26.37;26.08
34124;BME280;13153;52.316;21.166;2023-04-22T05:29:21;100386.22;;;27.22;24.85
34124;BME280;13153;52.316;21.166;2023-04-22T05:31:47;100383.94;;;27.95;24.09
34124;BME280;13153;52.316;21.166;2023-04-22T05:34:13;100389.22;;;28.56;23.33
34124;BME280;13153;52.316;21.166;2023-04-22T05:36:39;100383.78;;;29.30;22.43
34124;BME280;13153;52.316;21.166;2023-04-22T05:39:05;100381.19;;;29.63;21.50
34124;BME280;13153;52.316;21.166;2023-04-22T05:41:31;100390.69;;;30.22;20.88
34124;BME280;13153;52.316;21.166;2023-04-22T05:43:57;100386.63;;;30.46;21.04
34124;BME280;13153;52.316;21.166;2023-04-22T05:46:23;100397.72;;;31.52;19.81
34124;BME280;13153;52.316;21.166;2023-04-22T05:48:49;100395.50;;;31.89;19.71
34124;BME280;13153;52.316;21.166;2023-04-22T05:51:15;100403.38;;;31.93;18.87
34124;BME280;13153;52.316;21.166;2023-04-22T05:53:41;100389.66;;;32.25;18.62
34124;BME280;13153;52.316;21.166;2023-04-22T05:56:07;100388.06;;;32.49;18.56
34124;BME280;13153;52.316;21.166;2023-04-22T05:58:34;100388.84;;;32.51;18.07
34124;BME280;13153;52.316;21.166;2023-04-22T06:00:59;100383.63;;;33.16;17.67
34124;BME280;13153;52.316;21.166;2023-04-22T06:03:25;100389.09;;;33.30;17.29
34124;BME280;13153;52.316;21.166;2023-04-22T06:05:51;100385.84;;;33.24;17.53
34124;BME280;13153;52.316;21.166;2023-04-22T06:08:17;100389.00;;;33.18;17.50
34124;BME280;13153;52.316;21.166;2023-04-22T06:10:44;100390.44;;;33.63;17.25
34124;BME280;13153;52.316;21.166;2023-04-22T06:13:10;100390.31;;;34.42;17.43
34124;BME280;13153;52.316;21.166;2023-04-22T06:15:36;100390.97;;;34.33;16.93
34124;BME280;13153;52.316;21.166;2023-04-22T06:18:02;100387.25;;;34.34;16.45
34124;BME280;13153;52.316;21.166;2023-04-22T06:20:28;100385.63;;;33.93;17.14
34124;BME280;13153;52.316;21.166;2023-04-22T06:22:57;100390.22;;;34.31;16.37
34124;BME280;13153;52.316;21.166;2023-04-22T06:25:23;100393.91;;;34.55;17.16
34124;BME280;13153;52.316;21.166;2023-04-22T06:27:49;100391.22;;;34.66;16.88
34124;BME280;13153;52.316;21.166;2023-04-22T06:30:15;100389.53;;;34.65;16.97
34124;BME280;13153;52.316;21.166;2023-04-22T06:32:41;100384.16;;;35.24;16.46
34124;BME280;13153;52.316;21.166;2023-04-22T06:35:07;100389.84;;;35.69;16.29
34124;BME280;13153;52.316;21.166;2023-04-22T06:37:33;100392.22;;;35.38;16.30
34124;BME280;13153;52.316;21.166;2023-04-22T06:39:59;100383.34;;;35.59;16.43
34124;BME280;13153;52.316;21.166;2023-04-22T06:42:25;100383.84;;;36.10;15.75
34124;BME280;13153;52.316;21.166;2023-04-22T06:44:51;100389.84;;;35.69;15.53
34124;BME280;13153;52.316;21.166;2023-04-22T06:47:16;100388.78;;;35.24;16.42
34124;BME280;13153;52.316;21.166;2023-04-22T06:49:42;100383.66;;;35.43;15.95
34124;BME280;13153;52.316;21.166;2023-04-22T06:52:09;100385.03;;;35.25;15.79
34124;BME280;13153;52.316;21.166;2023-04-22T06:54:35;100382.78;;;35.42;16.08
34124;BME280;13153;52.316;21.166;2023-04-22T06:57:01;100384.34;;;35.34;16.23
34124;BME280;13153;52.316;21.166;2023-04-22T06:59:27;100381.31;;;34.65;16.56
34124;BME280;13153;52.316;21.166;2023-04-22T07:01:53;100391.28;;;34.54;17.11
34124;BME280;13153;52.316;21.166;2023-04-22T07:04:19;100389.00;;;34.48;17.17
34124;BME280;13153;52.316;21.166;2023-04-22T07:06:44;100379.38;;;34.42;16.46
34124;BME280;13153;52.316;21.166;2023-04-22T07:09:11;100379.47;;;34.53;16.86
34124;BME280;13153;52.316;21.166;2023-04-22T07:11:37;100383.13;;;34.77;16.94
34124;BME280;13153;52.316;21.166;2023-04-22T07:14:02;100387.03;;;34.37;17.24
34124;BME280;13153;52.316;21.166;2023-04-22T07:16:28;100379.25;;;34.56;17.17
34124;BME280;13153;52.316;21.166;2023-04-22T07:18:54;100374.97;;;34.65;16.48
34124;BME280;13153;52.316;21.166;2023-04-22T07:21:20;100381.06;;;34.68;16.71
34124;BME280;13153;52.316;21.166;2023-04-22T07:23:45;100375.44;;;35.19;16.26
34124;BME280;13153;52.316;21.166;2023-04-22T07:26:11;100376.47;;;35.29;16.25
34124;BME280;13153;52.316;21.166;2023-04-22T07:28:37;100380.44;;;35.25;15.97
34124;BME280;13153;52.316;21.166;2023-04-22T07:31:03;100374.69;;;35.17;16.30
34124;BME280;13153;52.316;21.166;2023-04-22T07:33:29;100371.84;;;35.19;16.06
34124;BME280;13153;52.316;21.166;2023-04-22T07:35:55;100377.59;;;35.03;16.85
34124;BME280;13153;52.316;21.166;2023-04-22T07:38:20;100367.34;;;34.57;16.39
34124;BME280;13153;52.316;21.166;2023-04-22T07:40:46;100374.91;;;34.16;16.58
34124;BME280;13153;52.316;21.166;2023-04-22T07:43:12;100365.13;;;33.48;17.17
34124;BME280;13153;52.316;21.166;2023-04-22T07:45:38;100360.31;;;32.57;18.07
34124;BME280;13153;52.316;21.166;2023-04-22T07:48:03;100364.25;;;32.24;18.06
34124;BME280;13153;52.316;21.166;2023-04-22T07:50:29;100355.28;;;31.94;18.41
34124;BME280;13153;52.316;21.166;2023-04-22T07:52:55;100360.75;;;31.34;18.50
34124;BME280;13153;52.316;21.166;2023-04-22T07:55:21;100361.00;;;30.68;19.49
34124;BME280;13153;52.316;21.166;2023-04-22T07:57:47;100361.97;;;30.02;19.19
34124;BME280;13153;52.316;21.166;2023-04-22T08:00:13;100353.41;;;29.23;20.51
34124;BME280;13153;52.316;21.166;2023-04-22T08:02:39;100363.16;;;28.91;20.76
34124;BME280;13153;52.316;21.166;2023-04-22T08:05:06;100351.69;;;28.68;20.88
34124;BME280;13153;52.316;21.166;2023-04-22T08:07:32;100355.78;;;28.57;20.82
34124;BME280;13153;52.316;21.166;2023-04-22T08:09:58;100356.16;;;28.50;21.37
34124;BME280;13153;52.316;21.166;2023-04-22T08:12:24;100348.81;;;28.71;22.06
34124;BME280;13153;52.316;21.166;2023-04-22T08:14:50;100354.75;;;28.79;21.41
34124;BME280;13153;52.316;21.166;2023-04-22T08:17:15;100361.94;;;28.61;21.69
34124;BME280;13153;52.316;21.166;2023-04-22T08:19:41;100353.50;;;28.48;21.29
34124;BME280;13153;52.316;21.166;2023-04-22T08:22:07;100353.44;;;27.92;21.30
34124;BME280;13153;52.316;21.166;2023-04-22T08:24:33;100349.50;;;27.38;21.73
34124;BME280;13153;52.316;21.166;2023-04-22T08:26:59;100355.19;;;27.12;22.05
34124;BME280;13153;52.316;21.166;2023-04-22T08:29:25;100344.97;;;27.18;22.24
34124;BME280;13153;52.316;21.166;2023-04-22T08:31:51;100349.91;;;27.29;23.29
34124;BME280;13153;52.316;21.166;2023-04-22T08:34:17;100343.88;;;27.22;22.28
34124;BME280;13153;52.316;21.166;2023-04-22T08:36:42;100339.69;;;27.15;21.63
34124;BME280;13153;52.316;21.166;2023-04-22T08:39:09;100343.00;;;27.02;22.07
34124;BME280;13153;52.316;21.166;2023-04-22T08:41:38;100344.28;;;26.91;21.95
34124;BME280;13153;52.316;21.166;2023-04-22T08:44:04;100340.00;;;26.86;22.20
34124;BME280;13153;52.316;21.166;2023-04-22T08:46:31;100344.94;;;26.98;23.06
34124;BME280;13153;52.316;21.166;2023-04-22T08:48:58;100343.56;;;27.30;22.69
34124;BME280;13153;52.316;21.166;2023-04-22T08:51:31;100346.00;;;27.36;21.54
34124;BME280;13153;52.316;21.166;2023-04-22T08:53:58;100343.44;;;27.13;21.57
34124;BME280;13153;52.316;21.166;2023-04-22T08:56:27;100342.44;;;26.70;21.18
34124;BME280;13153;52.316;21.166;2023-04-22T08:58:53;100338.03;;;26.22;22.13
34124;BME280;13153;52.316;21.166;2023-04-22T09:01:21;100332.34;;;26.07;22.54
34124;BME280;13153;52.316;21.166;2023-04-22T09:03:48;100335.94;;;25.84;22.64
34124;BME280;13153;52.316;21.166;2023-04-22T09:06:16;100332.31;;;25.85;23.60
34124;BME280;13153;52.316;21.166;2023-04-22T09:08:42;100326.44;;;25.74;22.54
34124;BME280;13153;52.316;21.166;2023-04-22T09:11:08;100327.66;;;25.63;22.48
34124;BME280;13153;52.316;21.166;2023-04-22T09:13:34;100329.13;;;25.74;23.14
34124;BME280;13153;52.316;21.166;2023-04-22T09:16:00;100329.22;;;25.71;23.82
34124;BME280;13153;52.316;21.166;2023-04-22T09:18:26;100326.19;;;25.80;22.83
34124;BME280;13153;52.316;21.166;2023-04-22T09:20:55;100328.31;;;25.95;22.79
34124;BME280;13153;52.316;21.166;2023-04-22T09:23:21;100316.94;;;26.10;23.34
34124;BME280;13153;52.316;21.166;2023-04-22T09:25:48;100317.41;;;26.21;22.97
34124;BME280;13153;52.316;21.166;2023-04-22T09:28:18;100316.09;;;26.08;23.35
34124;BME280;13153;52.316;21.166;2023-04-22T09:30:45;100319.69;;;26.09;23.36
34124;BME280;13153;52.316;21.166;2023-04-22T09:33:12;100321.97;;;26.19;23.50
34124;BME280;13153;52.316;21.166;2023-04-22T09:35:42;100320.69;;;26.29;23.73
34124;BME280;13153;52.316;21.166;2023-04-22T09:38:10;100317.97;;;26.29;23.51
34124;BME280;13153;52.316;21.166;2023-04-22T09:40:42;100313.53;;;26.28;23.98
34124;BME280;13153;52.316;21.166;2023-04-22T09:43:09;100310.41;;;26.16;22.74
34124;BME280;13153;52.316;21.166;2023-04-22T09:45:37;100307.44;;;26.23;23.51
34124;BME280;13153;52.316;21.166;2023-04-22T09:48:18;100306.50;;;26.24;23.20
34124;BME280;13153;52.316;21.166;2023-04-22T09:50:48;100305.13;;;25.91;23.51
34124;BME280;13153;52.316;21.166;2023-04-22T09:53:18;100308.56;;;25.94;22.74
34124;BME280;13153;52.316;21.166;2023-04-22T09:55:53;100293.81;;;26.03;22.69
34124;BME280;13153;52.316;21.166;2023-04-22T09:58:21;100295.34;;;26.10;23.24
34124;BME280;13153;52.316;21.166;2023-04-22T10:00:57;100290.31;;;26.24;24.20
34124;BME280;13153;52.316;21.166;2023-04-22T10:03:23;100293.00;;;26.24;23.93
34124;BME280;13153;52.316;21.166;2023-04-22T10:05:50;100287.06;;;25.93;23.47
34124;BME280;13153;52.316;21.166;2023-04-22T10:08:16;100285.16;;;25.47;23.92
34124;BME280;13153;52.316;21.166;2023-04-22T10:10:45;100285.03;;;25.00;23.68
34124;BME280;13153;52.316;21.166;2023-04-22T10:13:11;100282.78;;;24.60;24.31
34124;BME280;13153;52.316;21.166;2023-04-22T10:15:52;100280.69;;;24.42;24.50
34124;BME280;13153;52.316;21.166;2023-04-22T10:18:26;100283.84;;;24.26;25.92
34124;BME280;13153;52.316;21.166;2023-04-22T10:20:55;100279.00;;;24.38;25.65
34124;BME280;13153;52.316;21.166;2023-04-22T10:23:23;100277.41;;;24.32;25.13
34124;BME280;13153;52.316;21.166;2023-04-22T10:25:53;100281.25;;;24.51;25.01
34124;BME280;13153;52.316;21.166;2023-04-22T10:28:22;100278.28;;;24.32;24.90
34124;BME280;13153;52.316;21.166;2023-04-22T10:30:49;100269.09;;;24.40;25.32
34124;BME280;13153;52.316;21.166;2023-04-22T10:41:33;100261.84;;;24.94;24.89
34124;BME280;13153;52.316;21.166;2023-04-22T10:44:04;100268.81;;;25.01;25.22
34124;BME280;13153;52.316;21.166;2023-04-22T10:49:12;100260.03;;;24.96;25.11
34124;BME280;13153;52.316;21.166;2023-04-22T10:57:11;100250.84;;;25.02;25.04
34124;BME280;13153;52.316;21.166;2023-04-22T10:59:51;100253.75;;;24.96;24.91
34124;BME280;13153;52.316;21.166;2023-04-22T11:02:20;100257.78;;;25.09;25.63
34124;BME280;13153;52.316;21.166;2023-04-22T11:04:47;100257.19;;;25.26;26.15
34124;BME280;13153;52.316;21.166;2023-04-22T11:09:51;100255.09;;;25.34;23.94
34124;BME280;13153;52.316;21.166;2023-04-22T11:15:18;100245.97;;;25.13;24.09
34124;BME280;13153;52.316;21.166;2023-04-22T11:17:51;100250.91;;;25.00;23.67
34124;BME280;13153;52.316;21.166;2023-04-22T11:20:17;100242.38;;;24.86;23.81
34124;BME280;13153;52.316;21.166;2023-04-22T11:22:55;100239.75;;;24.85;23.98
34124;BME280;13153;52.316;21.166;2023-04-22T11:25:23;100243.41;;;24.84;24.61
34124;BME280;13153;52.316;21.166;2023-04-22T11:27:49;100231.13;;;24.75;24.37
34124;BME280;13153;52.316;21.166;2023-04-22T11:30:18;100237.31;;;24.79;25.10
34124;BME280;13153;52.316;21.166;2023-04-22T11:32:51;100232.63;;;24.84;25.25
34124;BME280;13153;52.316;21.166;2023-04-22T11:37:53;100233.22;;;24.92;25.48
34124;BME280;13153;52.316;21.166;2023-04-22T11:40:29;100232.16;;;24.97;25.00
34124;BME280;13153;52.316;21.166;2023-04-22T11:42:57;100223.00;;;25.03;24.42
34124;BME280;13153;52.316;21.166;2023-04-22T11:45:25;100225.75;;;25.01;24.23
34124;BME280;13153;52.316;21.166;2023-04-22T11:47:51;100227.91;;;24.90;24.55
34124;BME280;13153;52.316;21.166;2023-04-22T11:50:29;100220.91;;;24.85;24.69
34124;BME280;13153;52.316;21.166;2023-04-22T11:53:04;100227.94;;;24.89;25.95
34124;BME280;13153;52.316;21.166;2023-04-22T11:55:37;100218.16;;;24.86;24.70
34124;BME280;13153;52.316;21.166;2023-04-22T11:58:14;100224.38;;;24.88;25.61
34124;BME280;13153;52.316;21.166;2023-04-22T12:08:18;100214.44;;;25.17;25.74
34124;BME280;13153;52.316;21.166;2023-04-22T12:10:46;100215.19;;;25.20;25.04
34124;BME280;13153;52.316;21.166;2023-04-22T12:13:27;100217.63;;;25.28;25.01
34124;BME280;13153;52.316;21.166;2023-04-22T12:16:00;100210.34;;;25.30;25.21
34124;BME280;13153;52.316;21.166;2023-04-22T12:18:41;100214.81;;;25.31;24.88
34124;BME280;13153;52.316;21.166;2023-04-22T12:21:16;100215.63;;;25.33;25.49
34124;BME280;13153;52.316;21.166;2023-04-22T12:23:52;100211.91;;;25.37;25.47
34124;BME280;13153;52.316;21.166;2023-04-22T12:26:21;100204.50;;;25.42;25.53
34124;BME280;13153;52.316;21.166;2023-04-22T12:28:49;100204.38;;;25.45;25.32
34124;BME280;13153;52.316;21.166;2023-04-22T12:31:16;100212.50;;;25.44;24.67
34124;BME280;13153;52.316;21.166;2023-04-22T12:33:44;100205.56;;;25.38;23.97
34124;BME280;13153;52.316;21.166;2023-04-22T12:36:11;100203.00;;;25.35;23.69
34124;BME280;13153;52.316;21.166;2023-04-22T12:38:37;100205.84;;;25.30;24.22
34124;BME280;13153;52.316;21.166;2023-04-22T12:41:04;100204.16;;;25.28;24.30
34124;BME280;13153;52.316;21.166;2023-04-22T12:43:32;100196.25;;;25.23;23.51
34124;BME280;13153;52.316;21.166;2023-04-22T12:46:01;100196.63;;;25.13;23.68
34124;BME280;13153;52.316;21.166;2023-04-22T12:48:28;100191.03;;;24.92;23.69
34124;BME280;13153;52.316;21.166;2023-04-22T12:50:54;100192.91;;;24.90;23.95
34124;BME280;13153;52.316;21.166;2023-04-22T12:53:20;100194.19;;;24.80;24.34
34124;BME280;13153;52.316;21.166;2023-04-22T12:55:46;100184.19;;;24.84;25.21
34124;BME280;13153;52.316;21.166;2023-04-22T12:58:13;100176.81;;;24.89;25.00
34124;BME280;13153;52.316;21.166;2023-04-22T13:00:39;100184.81;;;24.90;24.79
34124;BME280;13153;52.316;21.166;2023-04-22T13:03:05;100182.13;;;24.90;24.29
34124;BME280;13153;52.316;21.166;2023-04-22T13:05:31;100175.91;;;24.88;24.70
34124;BME280;13153;52.316;21.166;2023-04-22T13:07:58;100176.69;;;24.92;24.35
34124;BME280;13153;52.316;21.166;2023-04-22T13:10:24;100173.19;;;24.90;24.29
34124;BME280;13153;52.316;21.166;2023-04-22T13:12:53;100167.69;;;24.93;23.77